Historique des mesures à Cassis (13260), France
Quotidien Résumé Octobre 5, 2017 Unités:  Métrique    US   Métrique/US
« Précédent (Jour)
Suivant (Jour) »
Quotidien Hebdomadaire Mensuel Annuel Période au choix
  Maximum: Minimum: Moyenne:
Température: TemperatureC °C 16.8 °C 18.9 °C
Point de rosée: DewpointC °C 8.2 °C 13.2 °C
Humidité: Humidity % 41 % 67 %
Vitesse du vent: 0 km/h 0 km/h 13.5 km/h
Rafales: 0 km/h - -
Vent:- - WSW
Pression: PressurehPa hPa 1010.7 hPa -
Précipitations: 0.0 mm    
Historical Graphs
 
 
Mesures pour : Octobre 5, 2017
Heure Temperature Point de rosée Pression Vent Vitesse du vent Rafales Humidité Pluie (par heure) Conditions
TemperatureC °C DewpointC °C PressurehPa hPa Calm     Humidity % HourlyPrecipMM mm SoftwareType W/m2
00:11 18.1 °C 14.8 °C 1019.9 hPa Calm     81 % 0.0 mm open2300-1.11 W/m2
01:11 17.8 °C 14.7 °C 1019.5 hPa Calm     82 % 0.0 mm open2300-1.11 W/m2
02:11 17.8 °C 14.7 °C 1019.2 hPa Calm     82 % 0.0 mm open2300-1.11 W/m2
03:11 17.5 °C 14.4 °C 1018.5 hPa Calm     82 % 0.0 mm open2300-1.11 W/m2
06:11 16.9 °C 14.2 °C 1016.8 hPa NNW 6.4 km/h 8 km/h 84 % 0.0 mm open2300-1.11 W/m2
07:11 16.8 °C 13.9 °C 1016.8 hPa NNW 11.6 km/h 17.4 km/h 83 % 0.0 mm open2300-1.11 W/m2
08:11 16.8 °C 13.7 °C 1016.8 hPa NNE 3.4 km/h 5.1 km/h 82 % 0.0 mm open2300-1.11 W/m2
09:11 18.1 °C 14.8 °C 1016.8 hPa Calm   23 km/h 81 % 0.0 mm open2300-1.11 W/m2
10:11 19.1 °C 14.6 °C 1017.2 hPa NW 29 km/h 29 km/h 75 % 0.0 mm open2300-1.11 W/m2
11:11 19.9 °C 14.5 °C 1017.5 hPa WNW 21.6 km/h 21.6 km/h 71 % 0.0 mm open2300-1.11 W/m2
12:11 21.4 °C 15.0 °C 1017.2 hPa NE 6.4 km/h 13.2 km/h 67 % 0.0 mm open2300-1.11 W/m2
13:11 22.2 °C 15.1 °C 1016.1 hPa NW 38.8 km/h 38.8 km/h 64 % 0.0 mm open2300-1.11 W/m2
14:11 22.7 °C 14.0 °C 1015.5 hPa NW 11.6 km/h 13.2 km/h 58 % 0.0 mm open2300-1.11 W/m2
15:11 23.2 °C 13.3 °C 1014.1 hPa NW 33.6 km/h 33.6 km/h 54 % 0.0 mm open2300-1.11 W/m2
16:11 22.7 °C 13.7 °C 1013.4 hPa WNW 44.6 km/h 44.6 km/h 57 % 0.0 mm open2300-1.11 W/m2
17:11 22.3 °C 13.3 °C 1012.8 hPa NNW 17.9 km/h 33.6 km/h 57 % 0.0 mm open2300-1.11 W/m2
18:11 21.4 °C 12.8 °C 1012.1 hPa NW 4.2 km/h 23.8 km/h 58 % 0.0 mm open2300-1.11 W/m2
19:11 20.2 °C 13.4 °C 1011.7 hPa WNW 6.4 km/h 29 km/h 65 % 0.0 mm open2300-1.11 W/m2
20:11 19.5 °C 13.4 °C 1011.4 hPa SSE 8 km/h 10.3 km/h 68 % 0.0 mm open2300-1.11 W/m2
21:11 19.3 °C 13.9 °C 1011.1 hPa NW 33.2 km/h 54.9 km/h 71 % 0.0 mm open2300-1.11 W/m2
22:11 19.1 °C 12.8 °C 1010.7 hPa NNW 12.2 km/h 19.6 km/h 67 % 0.0 mm open2300-1.11 W/m2
23:11 22.1 °C 8.2 °C 1010.7 hPa North 20.3 km/h 49.2 km/h 41 % 0.0 mm open2300-1.11 W/m2
Observations météo à CASSIS
WU-History script by Weather Underground - 1 mb